createdAt,value
2023-01-07T00:01:52.788Z,24.48
2023-01-07T00:05:10.181Z,26.48
2023-01-07T00:08:26.608Z,23.48
2023-01-07T00:11:45.707Z,23.95
2023-01-07T00:15:02.087Z,21.58
2023-01-07T00:18:18.545Z,21.90
2023-01-07T00:21:36.959Z,24.15
2023-01-07T00:24:54.207Z,23.85
2023-01-07T00:28:11.905Z,22.68
2023-01-07T00:31:30.958Z,23.73
2023-01-07T00:38:01.924Z,23.15
2023-01-07T00:41:19.286Z,23.65
2023-01-07T00:44:35.948Z,22.30
2023-01-07T00:47:54.261Z,23.90
2023-01-07T00:51:10.720Z,21.90
2023-01-07T00:54:27.275Z,22.28
2023-01-07T00:57:43.799Z,21.55
2023-01-07T01:01:06.008Z,22.38
2023-01-07T01:04:23.004Z,20.05
2023-01-07T01:07:40.221Z,18.45
2023-01-07T01:10:58.940Z,18.90
2023-01-07T01:14:15.519Z,19.18
2023-01-07T01:17:34.684Z,19.33
2023-01-07T01:20:54.225Z,19.28
2023-01-07T01:24:10.645Z,16.58
2023-01-07T01:27:27.866Z,18.28
2023-01-07T01:30:46.653Z,19.68
2023-01-07T01:34:05.594Z,19.58
2023-01-07T01:37:23.495Z,17.70
2023-01-07T01:40:40.662Z,16.68
2023-01-07T01:43:57.368Z,17.23
2023-01-07T01:47:21.582Z,18.48
2023-01-07T01:50:42.945Z,19.43
2023-01-07T01:54:00.466Z,16.58
2023-01-07T01:57:17.605Z,17.00
2023-01-07T02:00:36.040Z,18.10
2023-01-07T02:03:58.505Z,18.00
2023-01-07T02:07:19.981Z,18.83
2023-01-07T02:10:38.370Z,18.70
2023-01-07T02:14:08.304Z,17.50
2023-01-07T02:17:30.580Z,19.73
2023-01-07T02:21:12.856Z,18.93
2023-01-07T02:25:28.066Z,19.25
2023-01-07T02:29:12.218Z,18.05
2023-01-07T02:32:49.473Z,19.85
2023-01-07T02:36:26.034Z,17.98
2023-01-07T02:39:51.628Z,17.93
2023-01-07T02:43:15.826Z,17.65
2023-01-07T02:46:39.219Z,18.55
2023-01-07T02:49:59.151Z,16.95
2023-01-07T02:53:18.474Z,17.20
2023-01-07T02:56:43.612Z,19.50
2023-01-07T03:00:23.504Z,19.40
2023-01-07T03:03:58.944Z,20.23
2023-01-07T03:07:33.013Z,18.83
2023-01-07T03:10:54.434Z,19.55
2023-01-07T03:14:17.245Z,17.68
2023-01-07T03:17:39.477Z,17.03
2023-01-07T03:21:00.222Z,19.63
2023-01-07T03:24:18.639Z,19.40
2023-01-07T03:27:39.242Z,20.10
2023-01-07T03:30:57.942Z,21.93
2023-01-07T03:34:18.677Z,21.00
2023-01-07T03:37:39.998Z,21.53
2023-01-07T03:40:57.265Z,19.95
2023-01-07T03:44:16.908Z,21.63
2023-01-07T03:47:34.004Z,23.40
2023-01-07T03:50:50.609Z,22.50
2023-01-07T03:54:07.223Z,21.80
2023-01-07T03:57:24.441Z,21.73
2023-01-07T04:00:41.236Z,21.58
2023-01-07T04:04:03.346Z,21.85
2023-01-07T04:07:20.132Z,24.10
2023-01-07T04:10:36.375Z,22.20
2023-01-07T04:13:54.092Z,22.13
2023-01-07T04:17:11.646Z,22.45
2023-01-07T04:20:28.138Z,21.60
2023-01-07T04:23:44.651Z,22.78
2023-01-07T04:27:01.358Z,22.35
2023-01-07T04:30:19.835Z,20.10
2023-01-07T04:33:36.737Z,23.83
2023-01-07T04:36:53.410Z,23.48
2023-01-07T04:40:12.111Z,25.55
2023-01-07T04:43:28.516Z,24.65
2023-01-07T04:46:45.012Z,22.85
2023-01-07T04:50:03.279Z,23.38
2023-01-07T04:53:21.994Z,24.68
2023-01-07T04:56:38.565Z,25.03
2023-01-07T04:59:58.118Z,22.13
2023-01-07T05:03:15.392Z,26.73
2023-01-07T05:06:32.699Z,26.15
2023-01-07T05:09:49.132Z,25.48
2023-01-07T05:13:09.487Z,27.73
2023-01-07T05:16:26.678Z,25.18
2023-01-07T05:19:46.400Z,24.30
2023-01-07T05:23:02.914Z,23.57
2023-01-07T05:26:19.355Z,24.78
2023-01-07T05:29:38.982Z,27.60
2023-01-07T05:32:55.175Z,25.78
2023-01-07T05:36:12.755Z,25.55
2023-01-07T05:39:28.956Z,24.18
2023-01-07T05:42:45.927Z,24.18
2023-01-07T05:46:03.306Z,26.38
2023-01-07T05:49:19.939Z,24.95
2023-01-07T05:52:36.128Z,23.50
2023-01-07T05:55:52.956Z,26.70
2023-01-07T05:59:09.152Z,28.30
2023-01-07T06:02:25.528Z,28.33
2023-01-07T06:05:43.219Z,26.30
2023-01-07T06:09:00.184Z,25.55
2023-01-07T06:12:16.971Z,26.60
2023-01-07T06:15:34.139Z,26.53
2023-01-07T06:18:50.767Z,26.83
2023-01-07T06:22:07.410Z,28.20
2023-01-07T06:25:23.987Z,25.35
2023-01-07T06:28:41.119Z,25.50
2023-01-07T06:31:57.365Z,23.05
2023-01-07T06:35:16.284Z,26.45
2023-01-07T06:38:32.505Z,25.23
2023-01-07T06:41:48.922Z,28.70
2023-01-07T06:45:05.143Z,33.78
2023-01-07T06:48:21.500Z,32.53
2023-01-07T06:51:37.588Z,28.13
2023-01-07T06:54:54.334Z,23.70
2023-01-07T06:58:10.552Z,30.78
2023-01-07T07:01:27.427Z,26.63
2023-01-07T07:04:43.636Z,31.53
2023-01-07T07:08:01.151Z,26.05
2023-01-07T07:11:17.520Z,43.73
2023-01-07T07:14:35.193Z,29.98
2023-01-07T07:17:51.488Z,29.05
2023-01-07T07:21:08.006Z,28.80
2023-01-07T07:24:26.383Z,28.80
2023-01-07T07:27:43.061Z,34.05
2023-01-07T07:30:59.467Z,33.05
2023-01-07T07:34:16.802Z,28.98
2023-01-07T07:37:33.121Z,26.65
2023-01-07T07:40:49.853Z,28.13
2023-01-07T07:44:06.318Z,26.33
2023-01-07T07:47:23.081Z,25.65
2023-01-07T07:50:42.504Z,27.43
2023-01-07T07:53:59.638Z,26.45
2023-01-07T07:57:17.410Z,25.53
2023-01-07T08:00:37.079Z,26.65
2023-01-07T08:03:53.929Z,25.03
2023-01-07T08:07:10.636Z,25.75
2023-01-07T08:10:27.819Z,30.15
2023-01-07T08:13:45.093Z,27.23
2023-01-07T08:17:01.395Z,20.55
2023-01-07T08:20:20.068Z,25.83
2023-01-07T08:23:36.616Z,23.75
2023-01-07T08:26:57.611Z,25.78
2023-01-07T08:30:17.887Z,24.10
2023-01-07T08:33:36.494Z,21.90
2023-01-07T08:36:52.804Z,21.48
2023-01-07T08:40:09.820Z,22.25
2023-01-07T08:43:26.001Z,19.70
2023-01-07T08:46:43.621Z,19.95
2023-01-07T08:49:59.990Z,21.10
2023-01-07T08:53:16.678Z,24.25
2023-01-07T08:56:34.320Z,20.68
2023-01-07T08:59:51.748Z,22.15
2023-01-07T09:03:09.347Z,23.15
2023-01-07T09:06:25.875Z,27.03
2023-01-07T09:09:43.913Z,21.20
2023-01-07T09:13:00.733Z,22.00
2023-01-07T09:16:17.616Z,19.75
2023-01-07T09:19:34.496Z,17.75
2023-01-07T09:22:50.734Z,19.98
2023-01-07T09:26:07.579Z,16.78
2023-01-07T09:29:23.712Z,15.58
2023-01-07T09:32:39.987Z,14.80
2023-01-07T09:35:59.069Z,19.08
2023-01-07T09:39:17.527Z,13.80
2023-01-07T09:42:39.551Z,11.63
2023-01-07T09:46:00.662Z,11.35
2023-01-07T09:49:21.806Z,14.10
2023-01-07T09:52:42.719Z,13.33
2023-01-07T09:56:12.461Z,13.53
2023-01-07T09:59:22.990Z,10.60
2023-01-07T10:02:47.207Z,10.30
2023-01-07T10:06:12.648Z,11.45
2023-01-07T10:09:37.517Z,11.10
2023-01-07T10:12:58.679Z,10.28
2023-01-07T10:16:23.106Z,11.55
2023-01-07T10:19:44.965Z,12.35
2023-01-07T10:23:06.805Z,9.08
2023-01-07T10:26:35.406Z,11.60
2023-01-07T10:29:56.367Z,9.93
2023-01-07T10:33:26.014Z,10.85
2023-01-07T10:36:49.531Z,10.58
2023-01-07T10:40:33.358Z,10.40
2023-01-07T10:44:09.465Z,10.85
2023-01-07T10:47:37.230Z,10.93
2023-01-07T10:51:20.523Z,11.18
2023-01-07T10:54:57.790Z,10.08
2023-01-07T10:58:16.739Z,13.38
2023-01-07T11:01:39.529Z,13.55
2023-01-07T11:04:55.829Z,11.35
2023-01-07T11:08:17.202Z,12.00
2023-01-07T11:11:36.840Z,10.60
2023-01-07T11:14:54.622Z,8.85
2023-01-07T11:18:16.440Z,9.05
2023-01-07T11:21:50.472Z,10.28
2023-01-07T11:25:08.754Z,10.90
2023-01-07T11:28:32.520Z,11.98
2023-01-07T11:32:01.292Z,11.90
2023-01-07T11:35:29.057Z,12.33
2023-01-07T11:38:48.116Z,20.70
2023-01-07T11:42:10.895Z,13.25
2023-01-07T11:45:31.053Z,11.73
2023-01-07T11:49:45.911Z,13.53
2023-01-07T11:52:28.981Z,17.43
2023-01-07T11:55:45.613Z,15.13
2023-01-07T11:59:23.805Z,15.23
2023-01-07T12:02:42.706Z,17.13
2023-01-07T12:06:03.121Z,13.45
2023-01-07T12:09:40.909Z,12.40
2023-01-07T12:12:57.429Z,13.38
2023-01-07T12:16:16.628Z,10.40
2023-01-07T12:19:50.913Z,10.63
2023-01-07T12:23:15.461Z,9.45
2023-01-07T12:26:38.658Z,7.68
2023-01-07T12:30:06.601Z,8.55
2023-01-07T12:33:33.802Z,6.15
2023-01-07T12:36:55.989Z,7.00
2023-01-07T12:40:30.767Z,6.98
2023-01-07T12:43:51.265Z,9.08
2023-01-07T12:47:30.893Z,7.33
2023-01-07T12:50:44.369Z,7.18
2023-01-07T12:54:06.207Z,12.58
2023-01-07T12:57:27.122Z,8.68
2023-01-07T13:00:49.074Z,9.88
2023-01-07T13:04:14.556Z,8.75
2023-01-07T13:07:36.987Z,8.90
2023-01-07T13:10:57.880Z,9.83
2023-01-07T13:14:22.981Z,10.10
2023-01-07T13:17:41.546Z,9.50
2023-01-07T13:21:11.971Z,7.17
2023-01-07T13:24:55.709Z,13.10
2023-01-07T13:29:01.738Z,10.93
2023-01-07T13:32:43.820Z,10.05
2023-01-07T13:36:13.014Z,12.38
2023-01-07T13:39:50.126Z,16.33
2023-01-07T13:43:12.790Z,12.53
2023-01-07T13:46:33.844Z,11.13
2023-01-07T13:49:56.341Z,10.90
2023-01-07T13:53:21.481Z,16.88
2023-01-07T13:56:47.609Z,12.55
2023-01-07T14:00:06.822Z,13.38
2023-01-07T14:03:54.133Z,11.50
2023-01-07T14:07:15.731Z,9.75
2023-01-07T14:10:36.275Z,11.05
2023-01-07T14:13:57.347Z,11.50
2023-01-07T14:17:20.207Z,11.65
2023-01-07T14:20:43.140Z,11.28
2023-01-07T14:24:10.573Z,13.83
2023-01-07T14:27:44.275Z,12.58
2023-01-07T14:31:02.961Z,13.48
2023-01-07T14:34:28.689Z,12.93
2023-01-07T14:37:47.824Z,14.88
2023-01-07T14:41:16.745Z,14.83
2023-01-07T14:44:40.114Z,16.48
2023-01-07T14:48:03.234Z,14.55
2023-01-07T14:51:41.516Z,16.10
2023-01-07T14:55:39.823Z,16.50
2023-01-07T14:59:27.392Z,18.73
2023-01-07T15:03:29.310Z,21.88
2023-01-07T15:06:47.961Z,20.45
2023-01-07T15:10:22.021Z,21.50
2023-01-07T15:13:56.350Z,26.65
2023-01-07T15:17:13.131Z,27.08
2023-01-07T15:20:30.288Z,29.75
2023-01-07T15:23:51.888Z,26.98
2023-01-07T15:27:14.297Z,27.60
2023-01-07T15:30:44.075Z,25.30
2023-01-07T15:34:17.988Z,21.15
2023-01-07T15:37:34.670Z,21.60
2023-01-07T15:40:54.865Z,24.13
2023-01-07T15:44:13.392Z,23.63
2023-01-07T15:47:48.350Z,26.07
2023-01-07T15:51:05.452Z,23.10
2023-01-07T15:54:47.027Z,31.45
2023-01-07T15:58:11.604Z,30.35
2023-01-07T16:01:31.050Z,37.50
2023-01-07T16:04:49.334Z,36.48
2023-01-07T16:08:07.752Z,37.48
2023-01-07T16:11:34.966Z,37.28
2023-01-07T16:14:51.162Z,31.50
2023-01-07T16:18:09.887Z,36.48
2023-01-07T16:21:26.525Z,30.38
2023-01-07T16:24:43.466Z,35.40
2023-01-07T16:28:00.805Z,35.73
2023-01-07T16:31:21.262Z,33.00
2023-01-07T16:35:03.524Z,36.50
2023-01-07T16:38:20.739Z,34.43
2023-01-07T16:41:38.275Z,37.03
2023-01-07T16:45:10.257Z,38.13
2023-01-07T16:48:29.172Z,37.20
2023-01-07T16:51:48.872Z,38.05
2023-01-07T16:55:05.264Z,39.78
2023-01-07T16:58:38.230Z,38.40
2023-01-07T17:01:54.870Z,36.38
2023-01-07T17:05:25.525Z,33.38
2023-01-07T17:08:43.149Z,39.30
2023-01-07T17:12:01.032Z,36.50
2023-01-07T17:15:44.405Z,34.68
2023-01-07T17:19:02.613Z,35.63
2023-01-07T17:22:39.116Z,40.23
2023-01-07T17:25:55.580Z,42.78
2023-01-07T17:29:16.851Z,38.88
2023-01-07T17:32:33.179Z,43.35
2023-01-07T17:35:55.049Z,43.03
2023-01-07T17:39:11.547Z,39.18
2023-01-07T17:42:52.252Z,39.25
2023-01-07T17:46:09.745Z,38.93
2023-01-07T17:49:26.344Z,41.15
2023-01-07T17:52:42.750Z,37.98
2023-01-07T17:55:59.095Z,61.75
2023-01-07T17:59:17.913Z,59.63
2023-01-07T18:02:37.178Z,73.23
2023-01-07T18:09:09.648Z,50.55
2023-01-07T18:12:37.092Z,45.03
2023-01-07T18:15:53.218Z,50.15
2023-01-07T18:19:09.546Z,50.05
2023-01-07T18:22:26.248Z,52.18
2023-01-07T18:25:42.616Z,48.25
2023-01-07T18:28:59.578Z,47.88
2023-01-07T18:32:16.324Z,49.13
2023-01-07T18:35:32.744Z,53.75
2023-01-07T18:38:50.566Z,54.40
2023-01-07T18:42:06.934Z,51.03
2023-01-07T18:45:23.962Z,62.40
2023-01-07T18:48:40.178Z,59.63
2023-01-07T18:51:57.343Z,60.88
2023-01-07T18:55:17.351Z,59.35
2023-01-07T18:58:34.066Z,68.88
2023-01-07T19:01:50.325Z,67.90
2023-01-07T19:05:08.001Z,63.90
2023-01-07T19:08:24.071Z,66.30
2023-01-07T19:11:40.312Z,65.55
2023-01-07T19:14:56.563Z,60.18
2023-01-07T19:18:13.280Z,63.00
2023-01-07T19:21:29.644Z,60.13
2023-01-07T19:24:45.972Z,63.85
2023-01-07T19:28:02.163Z,59.75
2023-01-07T19:31:19.137Z,60.35
2023-01-07T19:34:36.046Z,59.40
2023-01-07T19:37:52.240Z,58.28
2023-01-07T19:41:08.586Z,59.60
2023-01-07T19:44:25.219Z,59.65
2023-01-07T19:47:42.787Z,59.83
2023-01-07T19:51:06.210Z,58.28
2023-01-07T19:54:24.211Z,65.10
2023-01-07T19:57:40.589Z,58.40
2023-01-07T20:00:58.036Z,58.08
2023-01-07T20:04:15.228Z,57.78
2023-01-07T20:07:33.401Z,56.50
2023-01-07T20:10:49.861Z,55.75
2023-01-07T20:14:05.895Z,57.08
2023-01-07T20:17:22.260Z,55.50
2023-01-07T20:20:38.670Z,57.15
2023-01-07T20:27:10.922Z,65.65
2023-01-07T20:30:27.279Z,60.80
2023-01-07T20:33:44.413Z,97.93
2023-01-07T20:40:19.573Z,125.85
2023-01-07T20:43:35.960Z,148.18
2023-01-07T20:46:52.627Z,139.00
2023-01-07T20:50:10.578Z,142.28
2023-01-07T20:53:27.582Z,137.50
2023-01-07T20:56:45.665Z,133.83
2023-01-07T21:00:02.113Z,88.53
2023-01-07T21:03:18.573Z,105.00
2023-01-07T21:06:36.782Z,74.30
2023-01-07T21:13:13.033Z,78.78
2023-01-07T21:16:30.325Z,66.40
2023-01-07T21:19:49.618Z,87.80
2023-01-07T21:26:25.930Z,63.93
2023-01-07T21:29:42.704Z,62.10
2023-01-07T21:32:58.995Z,60.20
2023-01-07T21:36:22.492Z,64.70
2023-01-07T21:42:55.041Z,57.93
2023-01-07T21:46:12.149Z,62.78
2023-01-07T21:49:28.524Z,67.88
2023-01-07T21:56:01.428Z,69.25
2023-01-07T21:59:18.614Z,83.50
2023-01-07T22:02:36.024Z,70.48
2023-01-07T22:06:02.265Z,74.85
2023-01-07T22:12:33.948Z,85.35
2023-01-07T22:15:51.034Z,80.70
2023-01-07T22:19:07.857Z,78.60
2023-01-07T22:22:24.142Z,61.33
2023-01-07T22:25:41.542Z,67.10
2023-01-07T22:29:03.754Z,58.55
2023-01-07T22:32:20.016Z,60.60
2023-01-07T22:35:37.336Z,63.23
2023-01-07T22:42:13.618Z,59.58
2023-01-07T22:45:35.589Z,58.43
2023-01-07T22:48:54.600Z,56.53
2023-01-07T22:52:12.013Z,55.55
2023-01-07T22:55:29.081Z,67.73
2023-01-07T22:58:45.287Z,67.25
2023-01-07T23:02:01.416Z,58.65
2023-01-07T23:05:18.313Z,60.13
2023-01-07T23:08:34.680Z,65.78
2023-01-07T23:11:55.754Z,69.10
2023-01-07T23:15:13.778Z,57.70
2023-01-07T23:18:30.155Z,62.38
2023-01-07T23:21:49.976Z,60.13
2023-01-07T23:28:22.716Z,60.43
2023-01-07T23:31:39.755Z,61.80
2023-01-07T23:34:56.278Z,63.88
2023-01-07T23:38:12.424Z,58.43
2023-01-07T23:41:28.878Z,57.78
2023-01-07T23:44:45.136Z,59.50
2023-01-07T23:48:01.411Z,58.93
2023-01-07T23:51:20.938Z,58.75
2023-01-07T23:54:37.233Z,60.10
2023-01-07T23:57:53.480Z,66.90
